createdAt,value
2019-06-10T00:04:09.725Z,17.4
2019-06-10T00:09:09.600Z,17.3
2019-06-10T00:14:09.607Z,17.3
2019-06-10T00:19:09.587Z,17.1
2019-06-10T00:24:09.669Z,17.1
2019-06-10T00:29:09.594Z,16.8
2019-06-10T00:34:09.585Z,16.7
2019-06-10T00:39:09.615Z,16.8
2019-06-10T00:44:09.597Z,16.9
2019-06-10T00:49:09.571Z,17.0
2019-06-10T00:54:09.560Z,16.9
2019-06-10T00:59:09.551Z,16.8
2019-06-10T01:04:09.559Z,16.8
2019-06-10T01:09:09.550Z,16.8
2019-06-10T01:14:09.554Z,16.8
2019-06-10T01:24:09.543Z,16.9
2019-06-10T01:29:09.580Z,16.8
2019-06-10T01:34:09.521Z,16.9
2019-06-10T01:39:09.510Z,17.0
2019-06-10T01:44:09.493Z,16.9
2019-06-10T01:49:09.575Z,16.9
2019-06-10T01:54:09.498Z,16.8
2019-06-10T01:59:09.612Z,16.6
2019-06-10T02:04:09.516Z,16.7
2019-06-10T02:09:09.488Z,16.7
2019-06-10T02:14:09.500Z,16.6
2019-06-10T02:19:09.474Z,16.6
2019-06-10T02:24:09.467Z,16.5
2019-06-10T02:29:09.443Z,16.6
2019-06-10T02:34:09.444Z,16.5
2019-06-10T02:39:09.545Z,16.5
2019-06-10T02:44:09.465Z,16.6
2019-06-10T02:54:09.425Z,16.6
2019-06-10T02:59:09.484Z,16.4
2019-06-10T03:04:09.430Z,16.4
2019-06-10T03:09:09.406Z,16.6
2019-06-10T03:14:09.513Z,16.7
2019-06-10T03:19:09.405Z,16.6
2019-06-10T03:24:09.402Z,16.7
2019-06-10T03:34:09.407Z,16.8
2019-06-10T03:39:09.379Z,16.7
2019-06-10T03:44:09.370Z,16.6
2019-06-10T03:49:09.381Z,16.6
2019-06-10T03:54:09.370Z,16.6
2019-06-10T04:04:09.363Z,16.7
2019-06-10T04:09:09.340Z,16.7
2019-06-10T04:14:09.358Z,16.8
2019-06-10T04:19:15.161Z,16.8
2019-06-10T04:24:09.340Z,16.6
2019-06-10T04:29:09.321Z,16.6
2019-06-10T04:34:09.351Z,16.3
2019-06-10T04:39:09.480Z,16.4
2019-06-10T04:44:09.316Z,16.4
2019-06-10T04:49:09.385Z,16.6
2019-06-10T04:54:09.305Z,16.7
2019-06-10T04:59:09.415Z,16.9
2019-06-10T05:04:09.289Z,16.9
2019-06-10T05:09:09.281Z,16.9
2019-06-10T05:14:09.276Z,16.9
2019-06-10T05:19:09.276Z,16.9
2019-06-10T05:24:09.358Z,17.0
2019-06-10T05:29:09.273Z,17.0
2019-06-10T05:34:09.260Z,17.1
2019-06-10T05:39:09.258Z,17.2
2019-06-10T05:44:09.286Z,17.1
2019-06-10T05:49:09.236Z,17.1
2019-06-10T05:54:09.243Z,17.0
2019-06-10T05:59:09.228Z,17.0
2019-06-10T06:04:09.225Z,17.1
2019-06-10T06:14:09.216Z,17.2
2019-06-10T06:19:09.205Z,17.3
2019-06-10T06:24:09.262Z,17.3
2019-06-10T06:29:09.190Z,17.4
2019-06-10T06:34:09.190Z,17.4
2019-06-10T06:39:09.283Z,17.5
2019-06-10T06:49:09.177Z,17.5
2019-06-10T06:54:09.177Z,17.6
2019-06-10T07:04:09.184Z,17.7
2019-06-10T07:09:09.151Z,17.8
2019-06-10T07:14:09.175Z,17.8
2019-06-10T07:29:09.219Z,17.8
2019-06-10T07:44:09.122Z,17.8
2019-06-10T07:49:09.154Z,17.8
2019-06-10T08:04:09.156Z,17.8
2019-06-10T08:09:09.105Z,17.8
2019-06-10T08:19:09.124Z,17.7
2019-06-10T08:24:09.197Z,17.7
2019-06-10T08:29:09.165Z,17.8
2019-06-10T08:34:09.086Z,17.7
2019-06-10T08:39:09.061Z,17.6
2019-06-10T08:54:09.124Z,17.9
2019-06-10T08:59:09.516Z,18.0
2019-06-10T09:09:09.042Z,18.0
2019-06-10T09:14:09.119Z,18.2
2019-06-10T09:19:09.036Z,18.6
2019-06-10T09:24:09.011Z,18.5
2019-06-10T09:29:09.014Z,18.7
2019-06-10T09:34:09.001Z,18.9
2019-06-10T09:39:09.005Z,19.0
2019-06-10T09:44:08.997Z,18.9
2019-06-10T09:49:08.981Z,19.0
2019-06-10T09:54:08.981Z,18.7
2019-06-10T09:59:08.961Z,18.7
2019-06-10T10:04:08.990Z,19.0
2019-06-10T10:09:09.314Z,19.3
2019-06-10T10:19:08.966Z,19.2
2019-06-10T10:24:08.977Z,19.4
2019-06-10T10:29:08.942Z,19.5
2019-06-10T10:34:08.934Z,19.5
2019-06-10T10:39:08.949Z,19.6
2019-06-10T10:44:09.013Z,19.8
2019-06-10T10:49:08.915Z,19.8
2019-06-10T11:09:09.135Z,19.8
2019-06-10T11:14:09.110Z,19.8
2019-06-10T11:19:08.925Z,19.9
2019-06-10T11:24:08.869Z,20.3
2019-06-10T11:29:08.868Z,20.2
2019-06-10T11:44:08.854Z,20.3
2019-06-10T11:49:08.844Z,20.2
2019-06-10T11:54:08.921Z,20.5
2019-06-10T11:59:08.842Z,20.8
2019-06-10T12:04:08.827Z,20.7
2019-06-10T12:09:08.828Z,20.9
2019-06-10T12:24:08.831Z,20.6
2019-06-10T12:29:08.800Z,20.6
2019-06-10T12:44:11.355Z,20.8
2019-06-10T12:49:10.518Z,20.8
2019-06-10T12:54:08.861Z,20.9
2019-06-10T13:04:08.767Z,20.7
2019-06-10T13:14:08.754Z,20.4
2019-06-10T13:19:08.740Z,20.2
2019-06-10T13:39:08.751Z,19.8
2019-06-10T13:44:08.719Z,19.7
2019-06-10T13:49:08.717Z,19.7
2019-06-10T13:54:08.790Z,19.7
2019-06-10T13:59:08.713Z,19.6
2019-06-10T14:04:08.709Z,19.5
2019-06-10T14:09:08.701Z,19.6
2019-06-10T14:14:08.695Z,19.7
2019-06-10T14:19:08.679Z,19.7
2019-06-10T14:24:08.672Z,19.7
2019-06-10T14:34:08.772Z,19.2
2019-06-10T14:39:08.655Z,19.2
2019-06-10T14:49:08.690Z,19.1
2019-06-10T15:04:08.644Z,19.2
2019-06-10T15:14:08.636Z,19.2
2019-06-10T15:19:08.665Z,19.1
2019-06-10T15:24:08.628Z,19.1
2019-06-10T15:29:08.611Z,19.1
2019-06-10T15:44:08.702Z,19.3
2019-06-10T15:49:08.564Z,19.2
2019-06-10T15:54:08.580Z,19.2
2019-06-10T15:59:08.563Z,19.1
2019-06-10T16:09:08.575Z,19.1
2019-06-10T16:14:08.542Z,19.0
2019-06-10T16:19:08.556Z,18.9
2019-06-10T16:24:08.550Z,18.9
2019-06-10T16:29:09.210Z,18.9
2019-06-10T16:34:08.516Z,18.8
2019-06-10T16:39:08.530Z,18.8
2019-06-10T16:44:08.622Z,18.6
2019-06-10T16:49:08.505Z,18.5
2019-06-10T16:54:08.499Z,18.5
2019-06-10T16:59:08.497Z,18.5
2019-06-10T17:04:08.597Z,18.6
2019-06-10T17:09:08.488Z,18.7
2019-06-10T17:14:08.482Z,18.7
2019-06-10T17:19:08.481Z,18.8
2019-06-10T17:24:08.475Z,18.8
2019-06-10T17:29:08.466Z,18.9
2019-06-10T17:34:08.486Z,18.6
2019-06-10T17:39:08.441Z,18.4
2019-06-10T17:44:08.481Z,18.5
2019-06-10T17:49:11.509Z,18.6
2019-06-10T17:54:08.453Z,18.5
2019-06-10T18:09:08.417Z,18.5
2019-06-10T18:14:08.468Z,18.5
2019-06-10T18:19:08.406Z,18.5
2019-06-10T18:24:08.433Z,18.3
2019-06-10T18:29:08.639Z,18.4
2019-06-10T18:34:12.734Z,18.3
2019-06-10T18:39:08.388Z,18.1
2019-06-10T18:59:08.361Z,18.1
2019-06-10T19:04:08.372Z,18.1
2019-06-10T19:14:08.359Z,18.0
2019-06-10T19:19:08.444Z,18.0
2019-06-10T19:29:08.328Z,18.0
2019-06-10T19:34:08.406Z,17.9
2019-06-10T19:39:08.374Z,17.8
2019-06-10T19:44:08.401Z,17.9
2019-06-10T19:54:08.302Z,17.9
2019-06-10T20:04:08.393Z,17.7
2019-06-10T20:09:08.292Z,17.8
2019-06-10T20:14:08.312Z,17.8
2019-06-10T20:19:08.270Z,17.7
2019-06-10T20:24:08.278Z,17.7
2019-06-10T20:29:08.268Z,17.7
2019-06-10T20:34:08.274Z,17.6
2019-06-10T20:39:08.252Z,17.6
2019-06-10T20:44:08.248Z,17.6
2019-06-10T20:49:08.294Z,17.5
2019-06-10T21:04:08.228Z,17.3
2019-06-10T21:09:08.210Z,17.2
2019-06-10T21:14:08.226Z,17.3
2019-06-10T21:19:08.203Z,17.2
2019-06-10T21:24:10.465Z,17.1
2019-06-10T21:34:08.316Z,17.1
2019-06-10T21:39:08.196Z,17.0
2019-06-10T21:44:08.199Z,17.0
2019-06-10T21:49:08.201Z,17.0
2019-06-10T21:54:08.187Z,16.8
2019-06-10T21:59:08.186Z,16.9
2019-06-10T22:04:08.165Z,16.8
2019-06-10T22:09:08.254Z,16.8
2019-06-10T22:14:08.179Z,16.8
2019-06-10T22:19:08.151Z,16.7
2019-06-10T22:24:09.285Z,16.7
2019-06-10T22:29:08.127Z,16.7
2019-06-10T22:34:08.145Z,16.8
2019-06-10T22:39:08.151Z,16.8
2019-06-10T22:44:08.128Z,16.6
2019-06-10T22:49:08.132Z,16.6
2019-06-10T22:54:08.189Z,16.5
2019-06-10T22:59:08.112Z,16.4
2019-06-10T23:04:08.119Z,16.5
2019-06-10T23:09:08.082Z,16.5
2019-06-10T23:14:08.089Z,16.5
2019-06-10T23:19:08.092Z,16.4
2019-06-10T23:24:12.285Z,16.3
2019-06-10T23:29:08.106Z,16.3
2019-06-10T23:34:08.103Z,16.4
2019-06-10T23:39:08.069Z,16.3
2019-06-10T23:44:08.052Z,16.4
2019-06-10T23:49:08.059Z,16.3
2019-06-10T23:54:08.043Z,16.4
2019-06-10T23:59:08.043Z,16.5
